createdAt,value
2022-12-29T00:00:48.536Z,1.80
2022-12-29T00:03:32.884Z,1.40
2022-12-29T00:06:16.905Z,1.25
2022-12-29T00:08:59.707Z,1.33
2022-12-29T00:11:42.583Z,1.08
2022-12-29T00:14:43.207Z,1.30
2022-12-29T00:17:26.073Z,1.25
2022-12-29T00:20:28.215Z,1.60
2022-12-29T00:23:28.882Z,1.77
2022-12-29T00:26:33.279Z,1.75
2022-12-29T00:29:33.758Z,1.85
2022-12-29T00:32:34.274Z,1.38
2022-12-29T00:35:25.421Z,1.17
2022-12-29T00:38:28.183Z,1.38
2022-12-29T00:41:28.644Z,1.20
2022-12-29T00:44:12.700Z,1.10
2022-12-29T00:46:55.564Z,1.05
2022-12-29T00:49:37.425Z,1.00
2022-12-29T00:52:21.637Z,0.98
2022-12-29T00:55:04.618Z,1.20
2022-12-29T00:57:47.425Z,1.08
2022-12-29T01:00:30.529Z,1.13
2022-12-29T01:03:13.394Z,1.00
2022-12-29T01:05:56.874Z,0.90
2022-12-29T01:08:41.079Z,1.00
2022-12-29T01:11:23.032Z,0.82
2022-12-29T01:14:06.353Z,1.02
2022-12-29T01:16:50.207Z,1.10
2022-12-29T01:19:33.680Z,1.15
2022-12-29T01:22:17.120Z,1.08
2022-12-29T01:25:02.209Z,0.97
2022-12-29T01:27:45.172Z,1.10
2022-12-29T01:30:28.816Z,1.00
2022-12-29T01:33:11.573Z,0.85
2022-12-29T01:38:40.304Z,0.80
2022-12-29T01:41:24.755Z,1.10
2022-12-29T01:44:48.749Z,1.20
2022-12-29T01:47:37.624Z,1.00
2022-12-29T01:50:25.024Z,1.27
2022-12-29T01:53:12.041Z,1.10
2022-12-29T01:55:57.695Z,1.17
2022-12-29T01:58:46.482Z,1.00
2022-12-29T02:01:29.641Z,0.90
2022-12-29T02:04:14.583Z,1.00
2022-12-29T02:07:01.674Z,1.10
2022-12-29T02:09:45.444Z,0.90
2022-12-29T02:12:28.264Z,0.90
2022-12-29T02:15:12.838Z,0.85
2022-12-29T02:21:14.635Z,0.90
2022-12-29T02:24:28.137Z,0.68
2022-12-29T02:27:48.133Z,0.90
2022-12-29T02:30:54.917Z,0.85
2022-12-29T02:33:56.593Z,0.80
2022-12-29T02:36:47.097Z,0.95
2022-12-29T02:39:39.412Z,0.70
2022-12-29T02:42:33.302Z,0.90
2022-12-29T02:45:24.632Z,0.93
2022-12-29T02:48:15.289Z,0.90
2022-12-29T02:51:03.818Z,0.80
2022-12-29T02:54:05.123Z,0.63
2022-12-29T02:56:47.946Z,0.77
2022-12-29T02:59:31.206Z,0.73
2022-12-29T03:02:29.119Z,0.70
2022-12-29T03:05:27.153Z,0.80
2022-12-29T03:08:20.991Z,1.00
2022-12-29T03:11:06.438Z,0.70
2022-12-29T03:14:11.834Z,0.65
2022-12-29T03:17:01.720Z,0.70
2022-12-29T03:19:50.797Z,0.90
2022-12-29T03:22:41.067Z,0.80
2022-12-29T03:25:32.132Z,0.80
2022-12-29T03:28:23.929Z,0.70
2022-12-29T03:31:10.174Z,0.70
2022-12-29T03:33:57.970Z,0.60
2022-12-29T03:36:46.476Z,0.70
2022-12-29T03:39:30.748Z,0.70
2022-12-29T03:42:16.833Z,0.63
2022-12-29T03:45:01.299Z,0.70
2022-12-29T03:47:44.948Z,0.77
2022-12-29T03:50:28.906Z,0.70
2022-12-29T03:53:11.733Z,0.57
2022-12-29T03:55:56.589Z,0.68
2022-12-29T04:01:26.213Z,0.68
2022-12-29T04:04:09.332Z,0.80
2022-12-29T04:06:52.401Z,0.85
2022-12-29T04:09:35.596Z,0.90
2022-12-29T04:12:20.607Z,0.70
2022-12-29T04:15:03.546Z,0.70
2022-12-29T04:17:46.505Z,0.60
2022-12-29T04:20:46.788Z,0.70
2022-12-29T04:23:30.246Z,0.70
2022-12-29T04:26:13.486Z,0.73
2022-12-29T04:29:08.697Z,0.65
2022-12-29T04:32:00.216Z,0.40
2022-12-29T04:34:45.086Z,0.55
2022-12-29T04:37:28.560Z,0.80
2022-12-29T04:40:13.116Z,0.60
2022-12-29T04:42:56.544Z,0.60
2022-12-29T04:45:45.384Z,0.77
2022-12-29T04:48:40.936Z,0.70
2022-12-29T04:51:34.413Z,0.75
2022-12-29T04:54:17.283Z,0.88
2022-12-29T04:57:05.328Z,0.80
2022-12-29T04:59:48.534Z,0.70
2022-12-29T05:02:33.272Z,0.68
2022-12-29T05:05:17.277Z,0.70
2022-12-29T05:08:05.229Z,0.80
2022-12-29T05:10:48.317Z,0.90
2022-12-29T05:13:33.676Z,0.77
2022-12-29T05:16:17.196Z,1.00
2022-12-29T05:19:01.891Z,1.20
2022-12-29T05:21:46.036Z,0.70
2022-12-29T05:24:29.027Z,0.85
2022-12-29T05:27:13.428Z,0.77
2022-12-29T05:30:05.572Z,0.80
2022-12-29T05:32:48.442Z,0.75
2022-12-29T05:35:33.834Z,0.65
2022-12-29T05:38:17.100Z,0.70
2022-12-29T05:41:02.053Z,0.63
2022-12-29T05:44:18.464Z,0.68
2022-12-29T05:47:09.880Z,0.68
2022-12-29T05:50:16.063Z,0.70
2022-12-29T05:53:21.765Z,0.70
2022-12-29T05:56:05.048Z,0.60
2022-12-29T05:58:48.383Z,0.80
2022-12-29T06:01:31.932Z,0.80
2022-12-29T06:04:14.927Z,0.80
2022-12-29T06:06:57.848Z,0.80
2022-12-29T06:10:00.527Z,0.70
2022-12-29T06:12:45.800Z,0.73
2022-12-29T06:15:28.801Z,1.20
2022-12-29T06:18:16.430Z,0.90
2022-12-29T06:21:02.941Z,1.10
2022-12-29T06:23:45.824Z,1.10
2022-12-29T06:26:30.840Z,0.90
2022-12-29T06:29:17.760Z,0.70
2022-12-29T06:32:00.643Z,0.60
2022-12-29T06:34:45.683Z,0.60
2022-12-29T06:37:28.751Z,0.67
2022-12-29T06:40:13.314Z,0.60
2022-12-29T06:43:13.973Z,0.80
2022-12-29T06:46:14.036Z,0.80
2022-12-29T06:48:56.905Z,0.80
2022-12-29T06:51:39.678Z,1.10
2022-12-29T06:54:22.507Z,0.90
2022-12-29T06:57:05.323Z,0.85
2022-12-29T06:59:49.679Z,0.90
2022-12-29T07:02:32.641Z,0.80
2022-12-29T07:05:15.711Z,0.70
2022-12-29T07:07:59.057Z,0.80
2022-12-29T07:10:41.928Z,1.58
2022-12-29T07:13:24.697Z,1.23
2022-12-29T07:16:10.797Z,1.05
2022-12-29T07:18:53.708Z,0.90
2022-12-29T07:21:36.487Z,1.00
2022-12-29T07:24:19.333Z,1.10
2022-12-29T07:27:02.162Z,1.13
2022-12-29T07:29:44.985Z,1.10
2022-12-29T07:32:29.200Z,0.82
2022-12-29T07:35:12.014Z,0.98
2022-12-29T07:37:54.918Z,1.00
2022-12-29T07:40:45.742Z,0.90
2022-12-29T07:43:28.803Z,0.75
2022-12-29T07:46:56.677Z,0.60
2022-12-29T07:49:34.783Z,0.68
2022-12-29T07:52:17.624Z,1.00
2022-12-29T07:55:00.506Z,0.73
2022-12-29T07:57:44.939Z,1.00
2022-12-29T08:00:27.997Z,0.82
2022-12-29T08:03:10.813Z,0.80
2022-12-29T08:05:53.734Z,0.70
2022-12-29T08:08:36.507Z,0.90
2022-12-29T08:11:19.344Z,0.80
2022-12-29T08:14:03.491Z,0.80
2022-12-29T08:16:46.320Z,1.17
2022-12-29T08:19:29.164Z,1.13
2022-12-29T08:22:12.118Z,1.13
2022-12-29T08:24:54.976Z,0.93
2022-12-29T08:27:37.937Z,1.00
2022-12-29T08:30:22.159Z,0.90
2022-12-29T08:33:05.127Z,0.80
2022-12-29T08:35:47.978Z,1.27
2022-12-29T08:38:31.237Z,9.15
2022-12-29T08:41:14.089Z,10.10
2022-12-29T08:43:56.910Z,6.00
2022-12-29T08:46:41.157Z,8.18
2022-12-29T08:49:24.035Z,5.28
2022-12-29T08:52:07.126Z,3.55
2022-12-29T08:54:49.948Z,1.77
2022-12-29T08:57:32.899Z,1.30
2022-12-29T09:00:31.477Z,0.93
2022-12-29T09:03:31.438Z,0.95
2022-12-29T09:06:20.364Z,0.95
2022-12-29T09:09:03.495Z,0.90
2022-12-29T09:11:47.097Z,1.20
2022-12-29T09:14:29.872Z,0.88
2022-12-29T09:17:30.620Z,1.40
2022-12-29T09:20:16.955Z,1.20
2022-12-29T09:22:59.754Z,1.20
2022-12-29T09:25:44.480Z,1.30
2022-12-29T09:28:29.842Z,1.13
2022-12-29T09:31:12.779Z,0.95
2022-12-29T09:33:55.687Z,0.90
2022-12-29T09:36:39.823Z,0.80
2022-12-29T09:39:22.625Z,1.00
2022-12-29T09:42:10.569Z,1.05
2022-12-29T09:45:05.815Z,1.13
2022-12-29T09:47:49.095Z,1.42
2022-12-29T09:50:36.456Z,1.63
2022-12-29T09:53:27.308Z,1.60
2022-12-29T09:56:17.259Z,1.63
2022-12-29T09:59:04.277Z,1.17
2022-12-29T10:01:54.272Z,1.17
2022-12-29T10:04:37.791Z,1.10
2022-12-29T10:07:33.940Z,1.10
2022-12-29T10:10:27.424Z,1.20
2022-12-29T10:13:30.253Z,0.90
2022-12-29T10:16:22.045Z,1.08
2022-12-29T10:19:37.875Z,0.85
2022-12-29T10:22:34.440Z,0.82
2022-12-29T10:25:23.205Z,1.00
2022-12-29T10:28:19.925Z,0.73
2022-12-29T10:31:08.875Z,1.17
2022-12-29T10:33:55.821Z,1.00
2022-12-29T10:36:42.135Z,0.90
2022-12-29T10:39:31.899Z,0.95
2022-12-29T10:42:23.675Z,1.08
2022-12-29T10:45:08.468Z,0.70
2022-12-29T10:47:57.760Z,1.00
2022-12-29T10:50:43.902Z,0.90
2022-12-29T10:53:32.714Z,1.20
2022-12-29T10:56:27.882Z,1.05
2022-12-29T10:59:18.520Z,1.10
2022-12-29T11:02:16.678Z,1.20
2022-12-29T11:05:05.685Z,1.10
2022-12-29T11:07:49.623Z,1.17
2022-12-29T11:10:38.009Z,1.30
2022-12-29T11:13:32.137Z,1.00
2022-12-29T11:16:29.722Z,1.10
2022-12-29T11:19:24.149Z,1.13
2022-12-29T11:22:16.221Z,1.00
2022-12-29T11:25:14.383Z,1.10
2022-12-29T11:27:58.823Z,1.35
2022-12-29T11:30:41.744Z,1.30
2022-12-29T11:33:25.926Z,1.50
2022-12-29T11:36:13.105Z,1.40
2022-12-29T11:38:57.620Z,2.45
2022-12-29T11:44:23.443Z,1.35
2022-12-29T11:47:09.940Z,1.40
2022-12-29T11:49:57.613Z,1.15
2022-12-29T11:52:41.376Z,1.10
2022-12-29T11:55:27.178Z,1.10
2022-12-29T11:58:17.885Z,1.30
2022-12-29T12:01:05.004Z,1.17
2022-12-29T12:03:55.062Z,1.33
2022-12-29T12:06:47.116Z,1.20
2022-12-29T12:09:34.762Z,1.02
2022-12-29T12:12:25.920Z,1.10
2022-12-29T12:15:17.337Z,1.45
2022-12-29T12:18:15.057Z,1.10
2022-12-29T12:21:02.672Z,1.17
2022-12-29T12:24:04.513Z,1.23
2022-12-29T12:26:58.490Z,1.10
2022-12-29T12:29:48.355Z,1.30
2022-12-29T12:32:44.006Z,1.40
2022-12-29T12:35:40.854Z,1.90
2022-12-29T12:38:36.612Z,1.52
2022-12-29T12:41:26.794Z,1.30
2022-12-29T12:44:17.275Z,1.52
2022-12-29T12:47:21.953Z,1.33
2022-12-29T12:50:40.106Z,1.30
2022-12-29T12:53:49.639Z,1.40
2022-12-29T12:56:49.546Z,1.50
2022-12-29T12:59:42.526Z,1.60
2022-12-29T13:02:37.934Z,1.90
2022-12-29T13:05:40.613Z,1.30
2022-12-29T13:08:45.474Z,1.90
2022-12-29T13:11:42.341Z,1.80
2022-12-29T13:14:39.775Z,1.70
2022-12-29T13:17:32.347Z,1.90
2022-12-29T13:20:24.818Z,1.63
2022-12-29T13:23:17.984Z,1.48
2022-12-29T13:26:09.025Z,1.40
2022-12-29T13:28:59.180Z,1.95
2022-12-29T13:31:52.184Z,12.80
2022-12-29T13:34:42.788Z,7.25
2022-12-29T13:37:29.851Z,4.93
2022-12-29T13:40:17.317Z,2.85
2022-12-29T13:43:01.043Z,2.17
2022-12-29T13:45:46.247Z,1.63
2022-12-29T13:48:39.388Z,1.30
2022-12-29T13:51:28.013Z,1.30
2022-12-29T13:54:24.527Z,1.17
2022-12-29T13:57:12.669Z,1.20
2022-12-29T14:00:01.628Z,2.00
2022-12-29T14:03:19.815Z,1.20
2022-12-29T14:06:16.169Z,1.45
2022-12-29T14:09:01.635Z,1.38
2022-12-29T14:11:45.277Z,1.60
2022-12-29T14:14:32.562Z,1.75
2022-12-29T14:17:22.817Z,2.30
2022-12-29T14:20:08.635Z,2.10
2022-12-29T14:23:01.836Z,2.58
2022-12-29T14:26:11.066Z,2.67
2022-12-29T14:28:53.923Z,2.53
2022-12-29T14:31:42.139Z,2.10
2022-12-29T14:34:32.246Z,2.30
2022-12-29T14:37:27.323Z,2.30
2022-12-29T14:43:02.485Z,2.00
2022-12-29T14:45:53.561Z,1.60
2022-12-29T14:48:44.341Z,2.05
2022-12-29T14:51:33.420Z,1.83
2022-12-29T14:54:50.314Z,1.52
2022-12-29T14:57:41.742Z,1.40
2022-12-29T15:00:27.930Z,1.80
2022-12-29T15:03:19.046Z,1.85
2022-12-29T15:06:10.060Z,1.63
2022-12-29T15:08:56.688Z,1.70
2022-12-29T15:11:50.683Z,1.73
2022-12-29T15:14:37.641Z,2.03
2022-12-29T15:17:28.911Z,1.83
2022-12-29T15:20:24.626Z,2.50
2022-12-29T15:23:12.665Z,2.30
2022-12-29T15:25:58.058Z,2.42
2022-12-29T15:28:43.049Z,3.05
2022-12-29T15:31:30.597Z,2.80
2022-12-29T15:34:14.744Z,2.55
2022-12-29T15:36:57.694Z,1.97
2022-12-29T15:39:41.759Z,1.80
2022-12-29T15:42:52.681Z,1.27
2022-12-29T15:45:37.535Z,1.35
2022-12-29T15:48:24.759Z,1.42
2022-12-29T15:51:19.222Z,1.23
2022-12-29T15:54:02.340Z,1.30
2022-12-29T15:56:45.365Z,1.58
2022-12-29T15:59:30.253Z,1.20
2022-12-29T16:02:13.476Z,1.13
2022-12-29T16:08:02.036Z,1.77
2022-12-29T16:10:45.506Z,1.30
2022-12-29T16:13:35.526Z,1.30
2022-12-29T16:16:28.055Z,1.52
2022-12-29T16:19:15.328Z,1.33
2022-12-29T16:22:01.019Z,1.70
2022-12-29T16:24:43.887Z,2.20
2022-12-29T16:27:33.573Z,2.08
2022-12-29T16:30:26.499Z,1.83
2022-12-29T16:33:38.725Z,1.65
2022-12-29T16:36:42.918Z,1.70
2022-12-29T16:39:36.794Z,2.25
2022-12-29T16:42:37.352Z,2.00
2022-12-29T16:45:55.564Z,1.75
2022-12-29T16:48:47.942Z,1.60
2022-12-29T16:51:33.637Z,2.00
2022-12-29T16:54:23.451Z,1.20
2022-12-29T16:57:10.227Z,1.50
2022-12-29T16:59:54.874Z,1.60
2022-12-29T17:05:28.774Z,1.27
2022-12-29T17:08:23.800Z,1.50
2022-12-29T17:11:24.757Z,1.20
2022-12-29T17:14:20.438Z,1.30
2022-12-29T17:17:04.140Z,1.30
2022-12-29T17:19:51.181Z,1.17
2022-12-29T17:22:34.464Z,1.10
2022-12-29T17:25:19.871Z,1.40
2022-12-29T17:28:05.360Z,1.20
2022-12-29T17:30:50.236Z,1.92
2022-12-29T17:33:37.358Z,1.52
2022-12-29T17:36:20.143Z,1.50
2022-12-29T17:39:02.905Z,1.25
2022-12-29T17:41:46.291Z,1.10
2022-12-29T17:44:29.188Z,1.02
2022-12-29T17:47:15.707Z,1.05
2022-12-29T17:49:58.520Z,1.23
2022-12-29T17:52:41.819Z,1.00
2022-12-29T17:55:29.932Z,2.25
2022-12-29T17:58:18.837Z,3.35
2022-12-29T18:01:03.510Z,2.70
2022-12-29T18:06:30.520Z,1.90
2022-12-29T18:09:14.883Z,1.40
2022-12-29T18:11:57.645Z,1.60
2022-12-29T18:14:40.441Z,1.80
2022-12-29T18:17:23.267Z,2.10
2022-12-29T18:20:08.102Z,2.20
2022-12-29T18:25:42.732Z,1.40
2022-12-29T18:28:25.765Z,1.35
2022-12-29T18:31:18.097Z,1.55
2022-12-29T18:34:03.188Z,2.17
2022-12-29T18:36:47.350Z,1.90
2022-12-29T18:39:30.711Z,2.03
2022-12-29T18:42:18.117Z,2.65
2022-12-29T18:45:00.945Z,2.00
2022-12-29T18:47:43.781Z,2.25
2022-12-29T18:50:26.567Z,1.83
2022-12-29T18:53:16.527Z,2.00
2022-12-29T18:56:00.008Z,2.20
2022-12-29T18:58:43.095Z,1.70
2022-12-29T19:01:27.699Z,1.70
2022-12-29T19:04:13.622Z,1.77
2022-12-29T19:06:56.394Z,2.30
2022-12-29T19:09:40.606Z,1.60
2022-12-29T19:12:28.189Z,1.75
2022-12-29T19:15:23.949Z,1.90
2022-12-29T19:18:42.997Z,2.45
2022-12-29T19:21:13.290Z,2.50
2022-12-29T19:23:56.097Z,2.15
2022-12-29T19:26:41.674Z,2.17
2022-12-29T19:29:24.528Z,1.83
2022-12-29T19:32:07.351Z,1.90
2022-12-29T19:34:50.178Z,2.65
2022-12-29T19:37:36.254Z,3.33
2022-12-29T19:40:22.490Z,2.90
2022-12-29T19:43:06.675Z,2.63
2022-12-29T19:45:51.353Z,2.28
2022-12-29T19:51:18.347Z,2.10
2022-12-29T19:54:01.149Z,2.70
2022-12-29T19:56:44.356Z,3.38
2022-12-29T19:59:28.924Z,2.65
2022-12-29T20:05:02.175Z,3.03
2022-12-29T20:07:44.965Z,2.80
2022-12-29T20:10:27.925Z,3.03
2022-12-29T20:13:10.744Z,1.90
2022-12-29T20:16:00.111Z,1.95
2022-12-29T20:18:43.711Z,2.30
2022-12-29T20:21:26.904Z,2.22
2022-12-29T20:24:09.819Z,1.90
2022-12-29T20:26:54.613Z,2.08
2022-12-29T20:29:39.892Z,1.95
2022-12-29T20:32:25.331Z,2.17
2022-12-29T20:35:09.346Z,2.20
2022-12-29T20:37:52.120Z,2.30
2022-12-29T20:40:42.361Z,2.45
2022-12-29T20:43:28.859Z,2.20
2022-12-29T20:46:18.097Z,2.45
2022-12-29T20:49:04.708Z,2.60
2022-12-29T20:52:05.519Z,2.78
2022-12-29T20:54:49.332Z,2.45
2022-12-29T20:57:49.643Z,2.45
2022-12-29T21:00:34.925Z,2.10
2022-12-29T21:03:17.812Z,2.08
2022-12-29T21:06:02.026Z,2.17
2022-12-29T21:08:44.803Z,3.00
2022-12-29T21:11:28.871Z,2.17
2022-12-29T21:14:11.655Z,2.47
2022-12-29T21:16:54.550Z,2.60
2022-12-29T21:19:37.326Z,2.08
2022-12-29T21:22:21.446Z,1.75
2022-12-29T21:25:04.385Z,1.50
2022-12-29T21:27:47.181Z,1.88
2022-12-29T21:30:30.008Z,1.90
2022-12-29T21:33:12.854Z,2.17
2022-12-29T21:35:55.659Z,2.10
2022-12-29T21:38:39.766Z,2.33
2022-12-29T21:41:23.335Z,2.40
2022-12-29T21:44:35.077Z,2.40
2022-12-29T21:47:17.980Z,2.45
2022-12-29T21:50:00.741Z,1.90
2022-12-29T21:52:43.549Z,1.63
2022-12-29T21:55:27.658Z,1.73
2022-12-29T21:58:39.319Z,1.90
2022-12-29T22:01:39.545Z,1.40
2022-12-29T22:04:42.170Z,1.52
2022-12-29T22:07:42.586Z,1.70
2022-12-29T22:10:43.023Z,1.67
2022-12-29T22:13:27.503Z,2.00
2022-12-29T22:16:12.349Z,1.60
2022-12-29T22:18:55.253Z,1.85
2022-12-29T22:21:38.051Z,2.10
2022-12-29T22:24:20.873Z,2.17
2022-12-29T22:27:03.668Z,2.17
2022-12-29T22:29:47.822Z,2.13
2022-12-29T22:32:30.634Z,2.00
2022-12-29T22:35:14.566Z,1.90
2022-12-29T22:37:57.382Z,1.60
2022-12-29T22:40:40.135Z,1.38
2022-12-29T22:43:22.941Z,1.30
2022-12-29T22:46:08.156Z,1.20
2022-12-29T22:48:50.978Z,1.48
2022-12-29T22:51:33.786Z,1.77
2022-12-29T22:54:16.551Z,1.70
2022-12-29T22:56:59.384Z,1.60
2022-12-29T22:59:42.165Z,1.67
2022-12-29T23:02:26.977Z,2.05
2022-12-29T23:05:10.594Z,1.95
2022-12-29T23:07:53.448Z,2.00
2022-12-29T23:10:36.214Z,1.67
2022-12-29T23:13:19.037Z,1.60
2022-12-29T23:16:02.073Z,1.90
2022-12-29T23:18:48.534Z,1.55
2022-12-29T23:21:31.582Z,1.40
2022-12-29T23:24:15.539Z,1.20
2022-12-29T23:26:58.409Z,1.50
2022-12-29T23:29:41.202Z,1.20
2022-12-29T23:32:24.058Z,1.30
2022-12-29T23:35:09.157Z,1.23
2022-12-29T23:37:52.031Z,0.90
2022-12-29T23:40:34.989Z,1.00
2022-12-29T23:43:17.877Z,1.20
2022-12-29T23:46:07.154Z,1.20
2022-12-29T23:48:50.075Z,1.13
2022-12-29T23:51:34.297Z,1.23
2022-12-29T23:54:17.159Z,1.15
2022-12-29T23:57:00.160Z,0.95
2022-12-29T23:59:43.251Z,1.00
